Bookmark and Share
Track history (hours):
 

Drifting buoy 17652

Last reported at 2014-Apr-20 21:00 UTC. Time now 2014-Apr-20 23:46 UTC.
Position S 43°58' E 019°39'.

Water temperature 10.8 ° C

NotesDate/timePositionNaut miles runAvg speedWind from/ knotsBaromVisibWave heightAir tempDewpointWater temp
2014-Apr-20 21:00S 43°58' E 019°39'0 0.1 10.8
2014-Apr-20 18:00S 43°58' E 019°38'4 1.9 10.8
2014-Apr-20 16:00S 44°01' E 019°37'0 0.0 10.9
2014-Apr-20 14:00S 44°01' E 019°37'0 0.0 10.9
2014-Apr-20 13:00S 44°01' E 019°37'0 0.0 10.9
2014-Apr-20 12:00S 44°01' E 019°37'0 0.1 10.9
2014-Apr-20 11:00S 44°01' E 019°37'4 1.3 10.9
2014-Apr-20 08:00S 44°03' E 019°32'1 0.4 10.9
2014-Apr-20 05:00S 44°03' E 019°31'0 0.0 10.9
2014-Apr-20 04:00S 44°03' E 019°31'0 0.0 10.9
2014-Apr-20 03:00S 44°03' E 019°31'2 0.6 10.9
2014-Apr-20 00:00S 44°05' E 019°29'0 0.0 10.9
2014-Apr-19 23:00S 44°05' E 019°29'3 0.6 10.9
2014-Apr-19 18:00S 44°07' E 019°27'1 0.6 10.9
2014-Apr-19 16:00S 44°07' E 019°25'1 1.0 10.9
2014-Apr-19 15:00S 44°08' E 019°24'0 0.0 10.9
2014-Apr-19 13:00S 44°08' E 019°24'1 0.3 10.9
2014-Apr-19 09:00S 44°08' E 019°23'4 0.7 10.9
2014-Apr-19 03:00S 44°12' E 019°21'0 0.3 10.9
2014-Apr-19 02:00S 44°12' E 019°21'1 1.0 10.9
2014-Apr-19 01:00S 44°13' E 019°20'1 0.9 10.9
2014-Apr-19 00:00S 44°13' E 019°19'0 0.0 10.9
2014-Apr-18 23:00S 44°13' E 019°19'2 0.4 10.9
2014-Apr-18 19:00S 44°15' E 019°17'3 0.7 10.9
2014-Apr-18 15:00S 44°17' E 019°16'0 0.0 10.9
2014-Apr-18 12:00S 44°17' E 019°16'3 0.6 10.9
2014-Apr-18 07:00S 44°20' E 019°14'0 0.0 10.9
2014-Apr-18 06:00S 44°20' E 019°14'0 0.1 10.9
2014-Apr-18 02:00S 44°20' E 019°14'1 0.6 10.9
2014-Apr-18 01:00S 44°20' E 019°13'0 0.2 10.9
2014-Apr-18 00:00S 44°20' E 019°14'0 0.0 10.9
2014-Apr-17 23:00S 44°20' E 019°14'1 0.7 10.9
2014-Apr-17 22:00S 44°21' E 019°14'0 0.0 11.0
2014-Apr-17 21:00S 44°21' E 019°14'1 0.8 11.0
2014-Apr-17 20:00S 44°22' E 019°14'1 0.8 11.0
2014-Apr-17 19:00S 44°22' E 019°15'2 0.4 11.0
2014-Apr-17 14:00S 44°24' E 019°13'1 0.6 11.1
2014-Apr-17 13:00S 44°24' E 019°13'3 0.4 11.1
2014-Apr-17 06:00S 44°27' E 019°10'3 1.1 10.8
2014-Apr-17 03:00S 44°27' E 019°06'0 0.0 10.8
2014-Apr-16 23:00S 44°27' E 019°06'0 0.0 10.8
2014-Apr-16 22:00S 44°27' E 019°06'0 0.2 10.8
2014-Apr-16 21:00S 44°27' E 019°06'0 0.4 10.8
2014-Apr-16 20:00S 44°27' E 019°05'1 0.7 10.8
2014-Apr-16 19:00S 44°27' E 019°04'0 0.0 10.8
2014-Apr-16 16:00S 44°27' E 019°04'1 0.5 10.8
2014-Apr-16 15:00S 44°27' E 019°04'4 0.5 10.8
2014-Apr-16 07:00S 44°28' E 018°58'0 0.0 10.7
2014-Apr-16 06:00S 44°28' E 018°58'0 0.0 10.7
2014-Apr-16 05:00S 44°28' E 018°58'0 0.1 10.7
2014-Apr-15 23:00S 44°28' E 018°58'1 0.7 11.1
2014-Apr-15 22:00S 44°28' E 018°58'0 0.0 11.2
2014-Apr-15 21:00S 44°28' E 018°58'3 0.5 11.4
2014-Apr-15 16:00S 44°30' E 018°55'1 1.1 11.7
2014-Apr-15 15:00S 44°30' E 018°54'1 0.4 11.8
2014-Apr-15 13:00S 44°30' E 018°52'1 1.3 11.9
2014-Apr-15 12:00S 44°30' E 018°51'1 0.3 11.9
2014-Apr-15 09:00S 44°30' E 018°49'1 0.7 12.0
2014-Apr-15 08:00S 44°30' E 018°50'0 0.1 12.0
2014-Apr-15 05:00S 44°30' E 018°50'1 0.3 11.8
2014-Apr-15 03:00S 44°30' E 018°49'2 0.8 11.8
2014-Apr-15 01:00S 44°31' E 018°48'0 0.1 11.8
2014-Apr-15 00:00S 44°31' E 018°47'0 0.0 11.8
2014-Apr-14 23:00S 44°31' E 018°47'1 0.3 11.8
2014-Apr-14 21:00S 44°30' E 018°47'2 0.4 11.8
2014-Apr-14 16:00S 44°29' E 018°45'0 0.1 11.9
2014-Apr-14 13:00S 44°29' E 018°45'1 0.5 11.9
2014-Apr-14 10:00S 44°28' E 018°43'3 0.4 12.0
2014-Apr-14 03:00S 44°27' E 018°40'0 0.1 12.1
2014-Apr-14 00:00S 44°27' E 018°41'1 0.6 12.2
2014-Apr-13 22:00S 44°26' E 018°40'0 0.0 12.3
2014-Apr-13 20:00S 44°26' E 018°40'4 0.7 12.3
2014-Apr-13 14:00S 44°28' E 018°34'0 0.0 12.2
2014-Apr-13 12:00S 44°28' E 018°34'0 0.0 12.1
2014-Apr-13 11:00S 44°28' E 018°34'1 0.2 12.0
2014-Apr-13 08:00S 44°28' E 018°33'1 0.3 12.0
2014-Apr-13 06:00S 44°28' E 018°32'2 1.6 12.0
2014-Apr-13 05:00S 44°29' E 018°30'2 0.8 12.0
2014-Apr-13 02:00S 44°30' E 018°27'4 1.8 12.1
2014-Apr-13 00:00S 44°30' E 018°23'2 0.3 12.1
2014-Apr-12 17:00S 44°30' E 018°20'3 2.7 12.2
2014-Apr-12 16:00S 44°32' E 018°17'0 0.0 12.2
2014-Apr-12 14:00S 44°32' E 018°17'0 0.0 12.2
2014-Apr-12 12:00S 44°32' E 018°17'2 0.5 12.2
2014-Apr-12 08:00S 44°32' E 018°14'1 0.5 12.0
2014-Apr-12 06:00S 44°32' E 018°13'2 0.9 12.0
2014-Apr-12 04:00S 44°32' E 018°10'0 0.0 11.9
2014-Apr-12 02:00S 44°32' E 018°10'1 0.3 11.9
2014-Apr-12 00:00S 44°31' E 018°10'2 0.4 11.9
2014-Apr-11 20:00S 44°33' E 018°08'4 0.6 12.0
2014-Apr-11 14:00S 44°33' E 018°03'0 0.0 11.9
2014-Apr-11 13:00S 44°33' E 018°03'0 0.0 11.9
2014-Apr-11 12:00S 44°33' E 018°03'0 0.1 11.9
2014-Apr-11 08:00S 44°34' E 018°02'0 0.1 11.8
2014-Apr-11 03:00S 44°34' E 018°03'0 0.0 11.7
2014-Apr-11 02:00S 44°34' E 018°03'1 0.8 11.8
2014-Apr-11 01:00S 44°34' E 018°02'2 1.8 11.8
2014-Apr-11 00:00S 44°34' E 017°60'   11.8

Dump ship's entire track history

sailing weather and tide predictions

Buoy 17652